createdAt,value
2018-07-12T00:01:54.234Z,12.40
2018-07-12T00:04:21.669Z,12.40
2018-07-12T00:06:49.062Z,12.50
2018-07-12T00:09:16.528Z,12.50
2018-07-12T00:11:43.947Z,12.50
2018-07-12T00:14:24.307Z,12.50
2018-07-12T00:19:19.385Z,12.50
2018-07-12T00:21:46.855Z,12.50
2018-07-12T00:24:14.286Z,12.60
2018-07-12T00:26:41.728Z,12.60
2018-07-12T00:29:09.134Z,12.60
2018-07-12T00:31:36.606Z,12.70
2018-07-12T00:34:03.966Z,12.80
2018-07-12T00:36:31.388Z,12.80
2018-07-12T00:38:58.782Z,12.80
2018-07-12T00:41:26.217Z,12.80
2018-07-12T00:43:53.629Z,12.70
2018-07-12T00:46:21.070Z,12.70
2018-07-12T00:48:48.519Z,12.70
2018-07-12T00:51:15.973Z,12.80
2018-07-12T00:53:43.406Z,12.80
2018-07-12T00:56:10.812Z,12.80
2018-07-12T00:58:38.227Z,12.80
2018-07-12T01:01:05.589Z,12.70
2018-07-12T01:03:33.013Z,12.70
2018-07-12T01:06:00.410Z,12.70
2018-07-12T01:08:27.818Z,12.70
2018-07-12T01:10:55.227Z,12.70
2018-07-12T01:13:22.613Z,12.70
2018-07-12T01:15:50.013Z,12.80
2018-07-12T01:18:17.446Z,12.80
2018-07-12T01:20:44.866Z,12.80
2018-07-12T01:23:12.306Z,12.80
2018-07-12T01:25:39.737Z,12.90
2018-07-12T01:28:07.138Z,12.90
2018-07-12T01:30:34.546Z,13.00
2018-07-12T01:33:01.972Z,13.00
2018-07-12T01:35:29.397Z,13.00
2018-07-12T01:37:56.851Z,13.00
2018-07-12T01:40:24.279Z,13.00
2018-07-12T01:42:51.730Z,12.90
2018-07-12T01:45:19.166Z,12.90
2018-07-12T01:47:46.590Z,12.80
2018-07-12T01:50:13.994Z,12.70
2018-07-12T01:52:41.381Z,12.60
2018-07-12T01:55:08.782Z,12.50
2018-07-12T01:57:36.210Z,12.40
2018-07-12T02:00:03.663Z,12.30
2018-07-12T02:02:31.082Z,12.20
2018-07-12T02:04:58.514Z,12.10
2018-07-12T02:07:26.094Z,12.10
2018-07-12T02:12:21.210Z,12.00
2018-07-12T02:14:48.641Z,11.90
2018-07-12T02:17:16.083Z,11.90
2018-07-12T02:19:43.538Z,11.90
2018-07-12T02:22:10.898Z,11.80
2018-07-12T02:24:38.281Z,11.80
2018-07-12T02:27:05.839Z,11.80
2018-07-12T02:29:50.455Z,11.80
2018-07-12T02:32:17.868Z,11.80
2018-07-12T02:34:45.258Z,11.80
2018-07-12T02:37:12.683Z,11.80
2018-07-12T02:39:40.116Z,11.80
2018-07-12T02:42:07.568Z,11.90
2018-07-12T02:44:34.954Z,11.90
2018-07-12T02:47:02.374Z,12.00
2018-07-12T02:49:29.781Z,12.10
2018-07-12T02:51:57.182Z,12.20
2018-07-12T02:54:24.558Z,12.20
2018-07-12T02:56:52.445Z,12.20
2018-07-12T02:59:19.849Z,12.20
2018-07-12T03:01:47.221Z,12.20
2018-07-12T03:04:14.642Z,12.10
2018-07-12T03:06:42.067Z,12.10
2018-07-12T03:09:09.603Z,12.10
2018-07-12T03:11:37.438Z,12.10
2018-07-12T03:14:05.371Z,12.10
2018-07-12T03:16:32.794Z,12.10
2018-07-12T03:19:00.546Z,12.10
2018-07-12T03:21:28.081Z,12.10
2018-07-12T03:23:55.531Z,12.10
2018-07-12T03:26:23.004Z,12.10
2018-07-12T03:28:50.459Z,12.10
2018-07-12T03:31:17.883Z,12.00
2018-07-12T03:33:45.307Z,11.90
2018-07-12T03:36:12.735Z,11.80
2018-07-12T03:38:40.150Z,11.80
2018-07-12T03:41:07.613Z,11.90
2018-07-12T03:43:35.071Z,11.90
2018-07-12T03:46:02.522Z,11.90
2018-07-12T03:48:29.956Z,11.90
2018-07-12T03:50:57.368Z,12.00
2018-07-12T03:53:24.744Z,11.90
2018-07-12T03:55:52.145Z,11.90
2018-07-12T03:58:19.538Z,12.00
2018-07-12T04:00:46.954Z,12.00
2018-07-12T04:03:14.358Z,11.90
2018-07-12T04:05:41.807Z,11.90
2018-07-12T04:08:09.252Z,11.90
2018-07-12T04:10:36.678Z,12.00
2018-07-12T04:13:04.054Z,12.00
2018-07-12T04:15:31.474Z,12.10
2018-07-12T04:17:58.883Z,12.00
2018-07-12T04:20:26.301Z,12.10
2018-07-12T04:22:53.930Z,12.10
2018-07-12T04:28:06.029Z,12.20
2018-07-12T04:30:33.480Z,12.20
2018-07-12T04:33:00.941Z,12.30
2018-07-12T04:35:28.395Z,12.30
2018-07-12T04:37:55.867Z,12.30
2018-07-12T04:40:23.305Z,12.10
2018-07-12T04:42:50.794Z,12.10
2018-07-12T04:45:18.171Z,12.10
2018-07-12T04:47:45.626Z,12.20
2018-07-12T04:50:13.107Z,12.30
2018-07-12T04:52:40.531Z,12.40
2018-07-12T04:55:07.950Z,12.50
2018-07-12T04:57:35.391Z,12.60
2018-07-12T05:00:02.885Z,12.70
2018-07-12T05:02:30.302Z,12.90
2018-07-12T05:04:57.721Z,13.10
2018-07-12T05:07:25.138Z,13.30
2018-07-12T05:09:52.554Z,13.50
2018-07-12T05:12:19.950Z,13.60
2018-07-12T05:14:47.382Z,13.90
2018-07-12T05:17:14.794Z,14.10
2018-07-12T05:19:42.210Z,14.10
2018-07-12T05:22:09.662Z,14.10
2018-07-12T05:24:37.072Z,14.10
2018-07-12T05:27:04.510Z,14.10
2018-07-12T05:29:31.975Z,14.10
2018-07-12T05:31:59.399Z,14.10
2018-07-12T05:34:26.803Z,14.10
2018-07-12T05:36:56.822Z,14.20
2018-07-12T05:39:25.594Z,14.30
2018-07-12T05:41:54.244Z,14.30
2018-07-12T05:44:22.934Z,14.20
2018-07-12T05:46:51.634Z,14.30
2018-07-12T05:49:20.333Z,14.30
2018-07-12T05:54:18.458Z,14.90
2018-07-12T05:56:47.410Z,15.20
2018-07-12T05:59:28.091Z,15.30
2018-07-12T06:02:08.041Z,15.50
2018-07-12T06:04:36.735Z,15.50
2018-07-12T06:07:05.534Z,15.70
2018-07-12T06:09:34.189Z,15.80
2018-07-12T06:12:02.895Z,15.70
2018-07-12T06:14:31.633Z,15.60
2018-07-12T06:17:00.360Z,15.60
2018-07-12T06:19:28.969Z,15.70
2018-07-12T06:21:57.587Z,15.90
2018-07-12T06:24:26.267Z,16.00
2018-07-12T06:26:54.927Z,16.10
2018-07-12T06:29:23.551Z,15.90
2018-07-12T06:31:52.225Z,15.90
2018-07-12T06:34:20.940Z,16.20
2018-07-12T06:36:49.598Z,16.30
2018-07-12T06:39:18.364Z,16.40
2018-07-12T06:41:47.102Z,16.50
2018-07-12T06:44:15.782Z,16.70
2018-07-12T06:46:44.486Z,16.70
2018-07-12T06:49:13.132Z,17.00
2018-07-12T06:51:41.890Z,17.20
2018-07-12T06:54:10.626Z,17.40
2018-07-12T06:56:39.256Z,17.40
2018-07-12T06:59:07.989Z,17.40
2018-07-12T07:01:36.675Z,17.50
2018-07-12T07:04:05.369Z,17.40
2018-07-12T07:09:02.354Z,17.90
2018-07-12T07:11:31.022Z,18.40
2018-07-12T07:13:59.698Z,19.50
2018-07-12T07:16:28.338Z,19.90
2018-07-12T07:18:57.551Z,19.70
2018-07-12T07:21:26.245Z,20.00
2018-07-12T07:23:54.964Z,20.20
2018-07-12T07:26:23.716Z,20.10
2018-07-12T07:28:52.514Z,20.40
2018-07-12T07:31:21.276Z,20.60
2018-07-12T07:33:49.891Z,21.20
2018-07-12T07:36:18.793Z,21.60
2018-07-12T07:41:15.745Z,23.20
2018-07-12T07:43:44.670Z,23.50
2018-07-12T07:46:13.411Z,23.10
2018-07-12T07:48:42.114Z,22.60
2018-07-12T07:51:10.864Z,22.70
2018-07-12T07:53:39.831Z,22.20
2018-07-12T07:56:08.601Z,22.30
2018-07-12T07:58:37.351Z,22.20
2018-07-12T08:01:06.057Z,21.80
2018-07-12T08:06:03.026Z,21.60
2018-07-12T08:08:31.772Z,21.20
2018-07-12T08:11:00.503Z,21.10
2018-07-12T08:13:29.267Z,20.70
2018-07-12T08:15:57.886Z,20.50
2018-07-12T08:18:26.651Z,20.60
2018-07-12T08:20:55.482Z,20.60
2018-07-12T08:23:24.163Z,20.40
2018-07-12T08:25:52.707Z,20.00
2018-07-12T08:28:24.156Z,19.80
2018-07-12T08:30:53.178Z,19.80
2018-07-12T08:33:22.199Z,20.30
2018-07-12T08:35:51.268Z,20.40
2018-07-12T08:38:19.930Z,20.70
2018-07-12T08:40:48.792Z,21.00
2018-07-12T08:43:17.547Z,20.70
2018-07-12T08:45:46.256Z,20.40
2018-07-12T08:48:14.977Z,20.30
2018-07-12T08:50:43.630Z,20.20
2018-07-12T08:53:12.474Z,20.50
2018-07-12T08:55:41.215Z,20.70
2018-07-12T08:58:09.909Z,21.30
2018-07-12T09:00:38.632Z,22.10
2018-07-12T09:03:07.424Z,23.10
2018-07-12T09:05:36.164Z,23.50
2018-07-12T09:08:10.327Z,23.80
2018-07-12T09:10:38.984Z,24.90
2018-07-12T09:13:07.763Z,26.30
2018-07-12T09:15:36.448Z,28.90
2018-07-12T09:18:05.165Z,30.90
2018-07-12T09:20:33.854Z,32.30
2018-07-12T09:23:02.631Z,31.30
2018-07-12T09:25:31.367Z,29.60
2018-07-12T09:28:00.020Z,27.80
2018-07-12T09:30:28.822Z,26.50
2018-07-12T09:32:57.487Z,25.90
2018-07-12T09:35:26.159Z,25.50
2018-07-12T09:37:54.888Z,25.10
2018-07-12T09:40:23.607Z,25.10
2018-07-12T09:42:52.336Z,25.30
2018-07-12T09:45:21.013Z,25.50
2018-07-12T09:47:49.684Z,25.80
2018-07-12T09:50:18.489Z,25.40
2018-07-12T09:52:47.094Z,24.90
2018-07-12T09:55:15.824Z,24.50
2018-07-12T09:57:55.534Z,24.30
2018-07-12T10:00:29.541Z,24.10
2018-07-12T10:03:03.479Z,24.00
2018-07-12T10:05:37.388Z,24.00
2018-07-12T10:08:11.214Z,24.00
2018-07-12T10:10:45.046Z,23.60
2018-07-12T10:13:18.867Z,23.70
2018-07-12T10:15:51.670Z,23.90
2018-07-12T10:18:26.316Z,24.20
2018-07-12T10:20:54.979Z,24.60
2018-07-12T10:23:23.913Z,25.40
2018-07-12T10:25:52.583Z,26.30
2018-07-12T10:28:21.356Z,26.50
2018-07-12T10:30:50.061Z,26.50
2018-07-12T10:33:19.366Z,27.80
2018-07-12T10:35:49.095Z,30.70
2018-07-12T10:38:18.134Z,32.60
2018-07-12T10:40:47.038Z,33.10
2018-07-12T10:43:15.642Z,34.10
2018-07-12T10:45:44.339Z,34.50
2018-07-12T10:48:12.958Z,33.10
2018-07-12T10:50:41.656Z,31.70
2018-07-12T10:53:10.278Z,32.00
2018-07-12T10:55:39.007Z,33.00
2018-07-12T10:58:07.663Z,33.40
2018-07-12T11:00:36.400Z,32.30
2018-07-12T11:03:05.226Z,31.90
2018-07-12T11:05:33.894Z,32.60
2018-07-12T11:08:02.508Z,33.90
2018-07-12T11:10:31.315Z,34.40
2018-07-12T11:13:16.981Z,35.60
2018-07-12T11:18:14.960Z,32.40
2018-07-12T11:20:43.954Z,30.50
2018-07-12T11:23:12.571Z,29.20
2018-07-12T11:25:41.275Z,29.20
2018-07-12T11:28:09.945Z,31.50
2018-07-12T11:30:38.518Z,33.50
2018-07-12T11:33:47.642Z,33.40
2018-07-12T11:36:16.312Z,32.20
2018-07-12T11:38:45.487Z,31.50
2018-07-12T11:41:14.335Z,30.60
2018-07-12T11:43:43.014Z,29.80
2018-07-12T11:46:12.978Z,29.60
2018-07-12T11:48:42.376Z,29.30
2018-07-12T11:51:11.262Z,29.10
2018-07-12T11:53:39.882Z,28.60
2018-07-12T11:56:08.483Z,28.40
2018-07-12T11:58:37.226Z,27.60
2018-07-12T12:01:05.894Z,27.70
2018-07-12T12:03:34.596Z,27.30
2018-07-12T12:06:03.336Z,27.00
2018-07-12T12:08:31.994Z,27.00
2018-07-12T12:11:00.702Z,27.20
2018-07-12T12:13:29.457Z,27.20
2018-07-12T12:15:58.178Z,27.20
2018-07-12T12:18:26.948Z,27.20
2018-07-12T12:20:55.663Z,27.00
2018-07-12T12:23:24.337Z,26.90
2018-07-12T12:25:52.985Z,26.60
2018-07-12T12:28:21.734Z,26.20
2018-07-12T12:30:50.397Z,26.10
2018-07-12T12:33:19.019Z,26.10
2018-07-12T12:35:47.679Z,26.50
2018-07-12T12:38:16.316Z,26.70
2018-07-12T12:40:44.986Z,26.60
2018-07-12T12:43:24.789Z,26.50
2018-07-12T12:45:53.426Z,26.40
2018-07-12T12:48:22.103Z,26.50
2018-07-12T12:50:50.847Z,26.10
2018-07-12T12:53:19.491Z,26.30
2018-07-12T12:55:48.144Z,26.20
2018-07-12T12:58:17.545Z,25.60
2018-07-12T13:00:46.265Z,25.70
2018-07-12T13:03:14.929Z,25.60
2018-07-12T13:05:43.669Z,25.60
2018-07-12T13:08:12.647Z,26.20
2018-07-12T13:10:41.323Z,27.20
2018-07-12T13:13:10.027Z,27.90
2018-07-12T13:15:38.638Z,28.50
2018-07-12T13:18:07.300Z,28.80
2018-07-12T13:20:35.980Z,28.80
2018-07-12T13:23:04.714Z,28.60
2018-07-12T13:25:33.397Z,28.60
2018-07-12T13:28:02.075Z,28.40
2018-07-12T13:30:30.737Z,27.50
2018-07-12T13:32:59.383Z,27.40
2018-07-12T13:35:28.121Z,26.30
2018-07-12T13:37:56.828Z,26.00
2018-07-12T13:40:25.403Z,25.50
2018-07-12T13:42:54.132Z,25.50
2018-07-12T13:45:22.818Z,26.20
2018-07-12T13:47:51.444Z,26.90
2018-07-12T13:50:20.138Z,27.30
2018-07-12T13:52:48.812Z,27.80
2018-07-12T13:55:17.570Z,27.70
2018-07-12T13:57:46.229Z,28.30
2018-07-12T14:00:14.970Z,28.60
2018-07-12T14:02:43.710Z,29.00
2018-07-12T14:05:12.530Z,29.50
2018-07-12T14:07:41.260Z,29.40
2018-07-12T14:10:09.922Z,29.10
2018-07-12T14:12:40.628Z,28.90
2018-07-12T14:17:41.464Z,28.30
2018-07-12T14:20:10.119Z,28.40
2018-07-12T14:22:38.770Z,28.60
2018-07-12T14:25:07.433Z,28.60
2018-07-12T14:27:36.086Z,28.20
2018-07-12T14:30:10.437Z,28.00
2018-07-12T14:32:39.095Z,27.60
2018-07-12T14:35:09.813Z,27.60
2018-07-12T14:37:51.058Z,27.80
2018-07-12T14:40:19.829Z,27.90
2018-07-12T14:42:48.460Z,27.80
2018-07-12T14:45:17.074Z,27.90
2018-07-12T14:47:45.786Z,28.10
2018-07-12T14:50:14.480Z,28.20
2018-07-12T14:52:43.293Z,28.30
2018-07-12T14:55:11.838Z,28.40
2018-07-12T14:57:44.230Z,28.50
2018-07-12T15:00:12.898Z,28.70
2018-07-12T15:02:41.609Z,28.70
2018-07-12T15:05:10.294Z,28.50
2018-07-12T15:07:39.002Z,28.30
2018-07-12T15:10:07.657Z,28.60
2018-07-12T15:12:36.259Z,28.90
2018-07-12T15:15:05.124Z,29.20
2018-07-12T15:17:33.800Z,29.20
2018-07-12T15:20:02.455Z,29.20
2018-07-12T15:22:31.042Z,29.00
2018-07-12T15:24:59.671Z,28.70
2018-07-12T15:27:28.317Z,28.90
2018-07-12T15:29:56.914Z,29.10
2018-07-12T15:32:25.479Z,29.50
2018-07-12T15:34:54.111Z,29.40
2018-07-12T15:37:22.754Z,28.60
2018-07-12T15:39:51.322Z,28.00
2018-07-12T15:42:19.973Z,27.60
2018-07-12T15:44:48.646Z,27.30
2018-07-12T15:47:17.247Z,27.00
2018-07-12T15:49:45.841Z,26.80
2018-07-12T15:52:14.520Z,26.50
2018-07-12T15:54:43.187Z,26.50
2018-07-12T15:57:11.879Z,26.70
2018-07-12T15:59:40.609Z,26.80
2018-07-12T16:02:09.380Z,26.70
2018-07-12T16:04:37.999Z,26.50
2018-07-12T16:07:06.775Z,26.20
2018-07-12T16:09:35.478Z,25.70
2018-07-12T16:12:04.153Z,25.50
2018-07-12T16:14:32.793Z,25.50
2018-07-12T16:17:01.544Z,25.50
2018-07-12T16:19:30.203Z,25.30
2018-07-12T16:21:58.841Z,25.40
2018-07-12T16:24:27.500Z,25.50
2018-07-12T16:26:56.192Z,25.40
2018-07-12T16:29:24.824Z,25.30
2018-07-12T16:31:53.553Z,25.20
2018-07-12T16:34:22.234Z,25.10
2018-07-12T16:36:50.939Z,25.10
2018-07-12T16:39:19.599Z,25.00
2018-07-12T16:41:48.344Z,25.00
2018-07-12T16:44:17.042Z,24.90
2018-07-12T16:46:45.670Z,25.10
2018-07-12T16:49:14.364Z,25.30
2018-07-12T16:51:43.050Z,25.30
2018-07-12T16:54:11.710Z,25.40
2018-07-12T16:56:40.331Z,25.30
2018-07-12T16:59:09.246Z,25.20
2018-07-12T17:01:37.986Z,24.90
2018-07-12T17:04:06.737Z,24.60
2018-07-12T17:06:35.356Z,24.50
2018-07-12T17:09:05.218Z,24.30
2018-07-12T17:11:33.897Z,24.30
2018-07-12T17:14:02.757Z,24.20
2018-07-12T17:16:31.374Z,24.00
2018-07-12T17:19:00.043Z,24.00
2018-07-12T17:21:28.796Z,24.20
2018-07-12T17:23:57.631Z,24.50
2018-07-12T17:26:26.463Z,24.70
2018-07-12T17:28:55.181Z,25.00
2018-07-12T17:31:23.849Z,25.20
2018-07-12T17:33:52.523Z,24.90
2018-07-12T17:36:21.253Z,24.50
2018-07-12T17:38:56.741Z,24.10
2018-07-12T17:41:25.365Z,23.70
2018-07-12T17:43:54.001Z,23.60
2018-07-12T17:46:22.691Z,23.30
2018-07-12T17:48:51.324Z,23.00
2018-07-12T17:51:20.001Z,22.70
2018-07-12T17:53:48.646Z,22.60
2018-07-12T17:56:17.378Z,22.50
2018-07-12T17:58:46.032Z,22.50
2018-07-12T18:01:14.756Z,22.40
2018-07-12T18:03:45.736Z,22.30
2018-07-12T18:06:14.520Z,22.20
2018-07-12T18:08:43.230Z,22.20
2018-07-12T18:11:12.027Z,22.10
2018-07-12T18:13:40.746Z,22.10
2018-07-12T18:16:25.931Z,22.00
2018-07-12T18:18:54.543Z,21.80
2018-07-12T18:21:23.279Z,21.70
2018-07-12T18:23:51.988Z,21.60
2018-07-12T18:26:20.759Z,21.50
2018-07-12T18:28:49.906Z,21.40
2018-07-12T18:31:18.572Z,21.30
2018-07-12T18:33:47.202Z,21.30
2018-07-12T18:36:15.892Z,21.20
2018-07-12T18:38:44.587Z,21.00
2018-07-12T18:41:13.303Z,20.70
2018-07-12T18:43:42.163Z,20.60
2018-07-12T18:46:22.352Z,20.40
2018-07-12T18:48:53.138Z,20.20
2018-07-12T18:56:55.148Z,19.60
2018-07-12T18:59:23.824Z,19.40
2018-07-12T19:01:52.585Z,19.20
2018-07-12T19:04:21.277Z,19.10
2018-07-12T19:06:50.006Z,18.90
2018-07-12T19:09:18.726Z,18.70
2018-07-12T19:11:47.450Z,18.50
2018-07-12T19:19:43.931Z,18.10
2018-07-12T19:22:20.771Z,18.00
2018-07-12T19:24:49.464Z,17.90
2018-07-12T19:27:18.251Z,17.80
2018-07-12T19:29:46.948Z,17.60
2018-07-12T19:32:33.429Z,17.50
2018-07-12T19:35:02.302Z,17.40
2018-07-12T19:37:30.894Z,17.20
2018-07-12T19:39:59.768Z,17.10
2018-07-12T19:42:28.429Z,16.90
2018-07-12T19:44:58.199Z,16.80
2018-07-12T19:47:33.901Z,16.70
2018-07-12T19:50:02.548Z,16.60
2018-07-12T19:52:31.417Z,16.50
2018-07-12T19:55:00.116Z,16.40
2018-07-12T19:57:28.845Z,16.40
2018-07-12T19:59:57.594Z,16.30
2018-07-12T20:02:26.291Z,16.30
2018-07-12T20:04:55.040Z,16.30
2018-07-12T20:07:23.714Z,16.20
2018-07-12T20:09:52.414Z,16.10
2018-07-12T20:12:21.095Z,16.10
2018-07-12T20:14:49.806Z,16.00
2018-07-12T20:17:18.524Z,15.90
2018-07-12T20:19:47.251Z,15.80
2018-07-12T20:22:16.074Z,15.70
2018-07-12T20:24:44.720Z,15.70
2018-07-12T20:27:13.366Z,15.80
2018-07-12T20:29:42.037Z,15.90
2018-07-12T20:32:10.722Z,15.90
2018-07-12T20:34:39.427Z,15.90
2018-07-12T20:37:08.002Z,16.00
2018-07-12T20:39:36.680Z,16.00
2018-07-12T20:42:05.304Z,16.00
2018-07-12T20:44:34.006Z,16.00
2018-07-12T20:47:02.615Z,16.00
2018-07-12T20:49:31.345Z,15.90
2018-07-12T20:52:00.036Z,15.90
2018-07-12T20:54:28.729Z,15.70
2018-07-12T20:56:57.347Z,15.80
2018-07-12T20:59:25.914Z,15.80
2018-07-12T21:01:54.562Z,15.80
2018-07-12T21:04:23.349Z,15.80
2018-07-12T21:06:52.149Z,15.80
2018-07-12T21:09:20.826Z,15.80
2018-07-12T21:11:49.578Z,15.80
2018-07-12T21:14:18.269Z,15.70
2018-07-12T21:16:46.893Z,15.70
2018-07-12T21:19:15.582Z,15.70
2018-07-12T21:21:44.235Z,15.60
2018-07-12T21:24:12.935Z,15.50
2018-07-12T21:26:41.530Z,15.50
2018-07-12T21:29:10.189Z,15.40
2018-07-12T21:31:38.743Z,15.40
2018-07-12T21:34:07.416Z,15.20
2018-07-12T21:36:36.095Z,15.20
2018-07-12T21:39:06.842Z,15.10
2018-07-12T21:41:35.437Z,15.10
2018-07-12T21:44:04.055Z,15.10
2018-07-12T21:46:32.762Z,15.00
2018-07-12T21:49:01.511Z,14.90
2018-07-12T21:53:58.694Z,14.70
2018-07-12T21:56:27.370Z,14.60
2018-07-12T21:58:56.043Z,14.40
2018-07-12T22:01:24.676Z,14.40
2018-07-12T22:03:54.357Z,14.40
2018-07-12T22:06:35.895Z,14.30
2018-07-12T22:09:06.379Z,14.30
2018-07-12T22:11:34.943Z,14.30
2018-07-12T22:14:03.804Z,14.30
2018-07-12T22:16:32.368Z,14.30
2018-07-12T22:19:00.910Z,14.30
2018-07-12T22:21:29.458Z,14.40
2018-07-12T22:23:58.211Z,14.40
2018-07-12T22:26:26.875Z,14.40
2018-07-12T22:28:55.489Z,14.30
2018-07-12T22:31:24.164Z,14.40
2018-07-12T22:33:52.867Z,14.40
2018-07-12T22:36:21.578Z,14.40
2018-07-12T22:38:50.274Z,14.40
2018-07-12T22:41:19.814Z,14.40
2018-07-12T22:43:48.502Z,14.50
2018-07-12T22:46:17.172Z,14.60
2018-07-12T22:48:45.833Z,14.60
2018-07-12T22:51:14.441Z,14.50
2018-07-12T22:53:43.122Z,14.50
2018-07-12T22:56:11.756Z,14.40
2018-07-12T22:58:40.390Z,14.30
2018-07-12T23:03:37.258Z,14.30
2018-07-12T23:06:05.967Z,14.20
2018-07-12T23:08:34.567Z,14.20
2018-07-12T23:11:03.223Z,14.20
2018-07-12T23:13:31.876Z,14.10
2018-07-12T23:16:00.488Z,14.00
2018-07-12T23:18:29.200Z,13.90
2018-07-12T23:20:57.988Z,13.80
2018-07-12T23:23:26.611Z,13.70
2018-07-12T23:25:55.170Z,13.60
2018-07-12T23:28:23.795Z,13.60
2018-07-12T23:33:20.678Z,13.50
2018-07-12T23:35:49.355Z,13.50
2018-07-12T23:38:18.056Z,13.40
2018-07-12T23:40:46.688Z,13.40
2018-07-12T23:43:15.370Z,13.30
2018-07-12T23:45:44.074Z,13.30
2018-07-12T23:50:40.913Z,13.20
2018-07-12T23:53:09.559Z,13.30
2018-07-12T23:55:38.176Z,13.30
2018-07-12T23:58:06.847Z,13.30
